sensor_id;sensor_type;location;lat;lon;timestamp;pressure;altitude;pressure_sealevel;temperature;humidity
43683;BME280;29285;52.128;21.060;2023-09-12T00:04:28;100071.00;;;20.55;100.00
43683;BME280;29285;52.128;21.060;2023-09-12T00:09:32;100069.55;;;20.49;100.00
43683;BME280;29285;52.128;21.060;2023-09-12T00:14:33;100072.52;;;20.41;100.00
43683;BME280;29285;52.128;21.060;2023-09-12T00:19:34;100067.10;;;20.41;100.00
43683;BME280;29285;52.128;21.060;2023-09-12T00:24:35;100063.70;;;20.39;100.00
43683;BME280;29285;52.128;21.060;2023-09-12T00:29:38;100059.63;;;20.30;100.00
43683;BME280;29285;52.128;21.060;2023-09-12T00:34:40;100065.53;;;20.20;100.00
43683;BME280;29285;52.128;21.060;2023-09-12T00:39:41;100068.14;;;20.17;100.00
43683;BME280;29285;52.128;21.060;2023-09-12T00:44:42;100067.81;;;20.20;100.00
43683;BME280;29285;52.128;21.060;2023-09-12T00:49:43;100072.57;;;20.20;100.00
43683;BME280;29285;52.128;21.060;2023-09-12T00:54:46;100073.14;;;20.16;100.00
43683;BME280;29285;52.128;21.060;2023-09-12T00:59:48;100075.85;;;20.15;100.00
43683;BME280;29285;52.128;21.060;2023-09-12T01:04:49;100070.23;;;20.18;100.00
43683;BME280;29285;52.128;21.060;2023-09-12T01:09:51;100065.84;;;20.18;100.00
43683;BME280;29285;52.128;21.060;2023-09-12T01:14:52;100063.91;;;20.18;100.00
43683;BME280;29285;52.128;21.060;2023-09-12T01:19:53;100064.65;;;20.17;100.00
43683;BME280;29285;52.128;21.060;2023-09-12T01:30:21;100061.21;;;20.01;100.00
43683;BME280;29285;52.128;21.060;2023-09-12T01:35:23;100065.14;;;19.97;100.00
43683;BME280;29285;52.128;21.060;2023-09-12T01:40:39;100065.54;;;19.89;100.00
43683;BME280;29285;52.128;21.060;2023-09-12T01:45:49;100061.81;;;19.84;100.00
43683;BME280;29285;52.128;21.060;2023-09-12T01:50:51;100064.04;;;19.79;100.00
43683;BME280;29285;52.128;21.060;2023-09-12T01:55:53;100058.63;;;19.76;100.00
43683;BME280;29285;52.128;21.060;2023-09-12T02:00:55;100054.27;;;19.71;100.00
43683;BME280;29285;52.128;21.060;2023-09-12T02:05:56;100053.04;;;19.68;100.00
43683;BME280;29285;52.128;21.060;2023-09-12T02:10:57;100052.52;;;19.62;100.00
43683;BME280;29285;52.128;21.060;2023-09-12T02:15:59;100053.34;;;19.57;100.00
43683;BME280;29285;52.128;21.060;2023-09-12T02:21:00;100053.77;;;19.53;100.00
43683;BME280;29285;52.128;21.060;2023-09-12T02:26:01;100052.89;;;19.47;100.00
43683;BME280;29285;52.128;21.060;2023-09-12T02:31:03;100051.64;;;19.44;100.00
43683;BME280;29285;52.128;21.060;2023-09-12T02:36:05;100054.03;;;19.39;100.00
43683;BME280;29285;52.128;21.060;2023-09-12T02:41:06;100057.14;;;19.37;100.00
43683;BME280;29285;52.128;21.060;2023-09-12T02:46:08;100062.05;;;19.43;100.00
43683;BME280;29285;52.128;21.060;2023-09-12T02:51:09;100064.09;;;19.51;100.00
43683;BME280;29285;52.128;21.060;2023-09-12T02:56:10;100066.75;;;19.50;100.00
43683;BME280;29285;52.128;21.060;2023-09-12T03:01:17;100067.01;;;19.46;100.00
43683;BME280;29285;52.128;21.060;2023-09-12T03:06:18;100066.09;;;19.40;100.00
43683;BME280;29285;52.128;21.060;2023-09-12T03:11:19;100067.96;;;19.35;100.00
43683;BME280;29285;52.128;21.060;2023-09-12T03:16:20;100063.68;;;19.27;100.00
43683;BME280;29285;52.128;21.060;2023-09-12T03:21:22;100062.32;;;19.23;100.00
43683;BME280;29285;52.128;21.060;2023-09-12T03:26:23;100064.50;;;19.15;100.00
43683;BME280;29285;52.128;21.060;2023-09-12T03:31:24;100066.87;;;19.07;100.00
43683;BME280;29285;52.128;21.060;2023-09-12T03:36:26;100067.70;;;19.02;100.00
43683;BME280;29285;52.128;21.060;2023-09-12T03:41:28;100069.02;;;19.00;100.00
43683;BME280;29285;52.128;21.060;2023-09-12T03:46:29;100071.34;;;18.96;100.00
43683;BME280;29285;52.128;21.060;2023-09-12T03:51:30;100075.16;;;18.90;100.00
43683;BME280;29285;52.128;21.060;2023-09-12T03:56:31;100076.10;;;18.83;100.00
43683;BME280;29285;52.128;21.060;2023-09-12T04:01:32;100076.78;;;18.77;100.00
43683;BME280;29285;52.128;21.060;2023-09-12T04:06:33;100080.34;;;18.73;100.00
43683;BME280;29285;52.128;21.060;2023-09-12T04:11:34;100082.20;;;18.74;100.00
43683;BME280;29285;52.128;21.060;2023-09-12T04:16:36;100080.08;;;18.74;100.00
43683;BME280;29285;52.128;21.060;2023-09-12T04:21:37;100080.14;;;18.73;100.00
43683;BME280;29285;52.128;21.060;2023-09-12T04:26:38;100078.55;;;18.70;100.00
43683;BME280;29285;52.128;21.060;2023-09-12T04:31:39;100082.45;;;18.73;100.00
43683;BME280;29285;52.128;21.060;2023-09-12T04:36:40;100083.59;;;18.74;100.00
43683;BME280;29285;52.128;21.060;2023-09-12T04:41:41;100083.52;;;18.78;100.00
43683;BME280;29285;52.128;21.060;2023-09-12T04:46:42;100086.42;;;18.84;100.00
43683;BME280;29285;52.128;21.060;2023-09-12T04:51:43;100089.67;;;19.11;100.00
43683;BME280;29285;52.128;21.060;2023-09-12T04:56:44;100087.95;;;19.70;100.00
43683;BME280;29285;52.128;21.060;2023-09-12T05:01:45;100090.04;;;20.16;100.00
43683;BME280;29285;52.128;21.060;2023-09-12T05:06:46;100091.96;;;20.49;100.00
43683;BME280;29285;52.128;21.060;2023-09-12T05:11:47;100090.83;;;20.73;100.00
43683;BME280;29285;52.128;21.060;2023-09-12T05:16:49;100094.50;;;20.82;100.00
43683;BME280;29285;52.128;21.060;2023-09-12T05:21:50;100095.89;;;20.57;100.00
43683;BME280;29285;52.128;21.060;2023-09-12T05:26:51;100100.95;;;20.34;100.00
43683;BME280;29285;52.128;21.060;2023-09-12T05:31:53;100101.25;;;20.26;100.00
43683;BME280;29285;52.128;21.060;2023-09-12T05:36:54;100102.98;;;20.21;100.00
43683;BME280;29285;52.128;21.060;2023-09-12T05:41:55;100107.72;;;20.21;100.00
43683;BME280;29285;52.128;21.060;2023-09-12T05:46:56;100104.01;;;20.27;100.00
43683;BME280;29285;52.128;21.060;2023-09-12T05:51:57;100107.65;;;20.37;100.00
43683;BME280;29285;52.128;21.060;2023-09-12T05:56:58;100106.89;;;20.47;100.00
43683;BME280;29285;52.128;21.060;2023-09-12T06:01:59;100106.04;;;20.55;100.00
43683;BME280;29285;52.128;21.060;2023-09-12T06:07:04;100108.35;;;20.60;100.00
43683;BME280;29285;52.128;21.060;2023-09-12T06:12:06;100108.62;;;20.65;100.00
43683;BME280;29285;52.128;21.060;2023-09-12T06:17:07;100113.03;;;20.64;100.00
43683;BME280;29285;52.128;21.060;2023-09-12T06:22:08;100115.15;;;20.70;100.00
43683;BME280;29285;52.128;21.060;2023-09-12T06:27:09;100118.35;;;20.78;100.00
43683;BME280;29285;52.128;21.060;2023-09-12T06:32:13;100122.81;;;20.90;100.00
43683;BME280;29285;52.128;21.060;2023-09-12T06:37:14;100124.40;;;20.98;100.00
43683;BME280;29285;52.128;21.060;2023-09-12T06:42:15;100130.90;;;21.07;100.00
43683;BME280;29285;52.128;21.060;2023-09-12T06:47:16;100130.45;;;21.17;100.00
43683;BME280;29285;52.128;21.060;2023-09-12T06:52:18;100126.05;;;21.25;100.00
43683;BME280;29285;52.128;21.060;2023-09-12T06:57:19;100127.11;;;21.39;100.00
43683;BME280;29285;52.128;21.060;2023-09-12T07:02:20;100126.34;;;21.51;100.00
43683;BME280;29285;52.128;21.060;2023-09-12T07:07:22;100130.73;;;21.62;100.00
43683;BME280;29285;52.128;21.060;2023-09-12T07:12:23;100135.10;;;21.74;100.00
43683;BME280;29285;52.128;21.060;2023-09-12T07:17:27;100138.83;;;21.90;100.00
43683;BME280;29285;52.128;21.060;2023-09-12T07:22:28;100133.34;;;22.09;100.00
43683;BME280;29285;52.128;21.060;2023-09-12T07:27:29;100130.63;;;22.23;100.00
43683;BME280;29285;52.128;21.060;2023-09-12T07:32:31;100131.89;;;22.38;100.00
43683;BME280;29285;52.128;21.060;2023-09-12T07:37:32;100131.94;;;22.50;100.00
43683;BME280;29285;52.128;21.060;2023-09-12T07:42:33;100134.25;;;22.61;100.00
43683;BME280;29285;52.128;21.060;2023-09-12T07:47:34;100131.33;;;22.75;100.00
43683;BME280;29285;52.128;21.060;2023-09-12T07:52:35;100129.84;;;22.88;100.00
43683;BME280;29285;52.128;21.060;2023-09-12T07:57:37;100126.30;;;23.01;100.00
43683;BME280;29285;52.128;21.060;2023-09-12T08:02:38;100127.42;;;23.07;100.00
43683;BME280;29285;52.128;21.060;2023-09-12T08:07:39;100132.61;;;23.14;100.00
43683;BME280;29285;52.128;21.060;2023-09-12T08:12:40;100129.15;;;23.28;100.00
43683;BME280;29285;52.128;21.060;2023-09-12T08:17:42;100125.00;;;23.42;100.00
43683;BME280;29285;52.128;21.060;2023-09-12T08:22:43;100127.70;;;23.53;100.00
43683;BME280;29285;52.128;21.060;2023-09-12T08:27:45;100126.29;;;23.63;100.00
43683;BME280;29285;52.128;21.060;2023-09-12T08:32:46;100127.62;;;23.74;100.00
43683;BME280;29285;52.128;21.060;2023-09-12T08:37:47;100129.10;;;23.85;100.00
43683;BME280;29285;52.128;21.060;2023-09-12T08:42:51;100131.71;;;23.97;100.00
43683;BME280;29285;52.128;21.060;2023-09-12T08:47:54;100132.91;;;24.10;100.00
43683;BME280;29285;52.128;21.060;2023-09-12T08:52:56;100131.20;;;24.23;100.00
43683;BME280;29285;52.128;21.060;2023-09-12T08:57:57;100130.10;;;24.37;100.00
43683;BME280;29285;52.128;21.060;2023-09-12T09:02:59;100124.67;;;24.51;100.00
43683;BME280;29285;52.128;21.060;2023-09-12T09:08:02;100127.36;;;24.62;100.00
43683;BME280;29285;52.128;21.060;2023-09-12T09:13:04;100118.89;;;24.72;100.00
43683;BME280;29285;52.128;21.060;2023-09-12T09:18:07;100123.69;;;24.84;100.00
43683;BME280;29285;52.128;21.060;2023-09-12T09:23:10;100118.77;;;24.94;100.00
43683;BME280;29285;52.128;21.060;2023-09-12T09:28:19;100118.72;;;25.06;100.00
43683;BME280;29285;52.128;21.060;2023-09-12T09:33:20;100115.81;;;25.18;100.00
43683;BME280;29285;52.128;21.060;2023-09-12T09:38:21;100114.81;;;25.31;100.00
43683;BME280;29285;52.128;21.060;2023-09-12T09:43:25;100111.79;;;25.42;100.00
43683;BME280;29285;52.128;21.060;2023-09-12T09:48:26;100111.33;;;25.50;100.00
43683;BME280;29285;52.128;21.060;2023-09-12T09:53:32;100111.27;;;25.61;100.00
43683;BME280;29285;52.128;21.060;2023-09-12T09:58:35;100110.80;;;25.73;100.00
43683;BME280;29285;52.128;21.060;2023-09-12T10:03:36;100111.23;;;25.86;100.00
43683;BME280;29285;52.128;21.060;2023-09-12T10:08:43;100104.80;;;25.98;100.00
43683;BME280;29285;52.128;21.060;2023-09-12T10:13:54;100105.27;;;26.14;100.00
43683;BME280;29285;52.128;21.060;2023-09-12T10:18:59;100099.39;;;26.25;100.00
43683;BME280;29285;52.128;21.060;2023-09-12T10:24:04;100103.64;;;26.38;100.00
43683;BME280;29285;52.128;21.060;2023-09-12T10:29:06;100099.23;;;26.36;100.00
43683;BME280;29285;52.128;21.060;2023-09-12T10:34:08;100096.72;;;26.40;100.00
43683;BME280;29285;52.128;21.060;2023-09-12T10:39:14;100096.96;;;26.60;100.00
43683;BME280;29285;52.128;21.060;2023-09-12T10:44:16;100093.19;;;26.85;100.00
43683;BME280;29285;52.128;21.060;2023-09-12T10:49:19;100090.27;;;27.06;100.00
43683;BME280;29285;52.128;21.060;2023-09-12T10:54:25;100082.05;;;27.24;100.00
43683;BME280;29285;52.128;21.060;2023-09-12T11:04:37;100072.66;;;27.51;100.00
43683;BME280;29285;52.128;21.060;2023-09-12T11:09:38;100073.77;;;27.71;100.00
43683;BME280;29285;52.128;21.060;2023-09-12T11:15:03;100074.02;;;27.91;100.00
43683;BME280;29285;52.128;21.060;2023-09-12T11:20:07;100073.79;;;28.17;100.00
43683;BME280;29285;52.128;21.060;2023-09-12T11:30:24;100070.09;;;28.22;100.00
43683;BME280;29285;52.128;21.060;2023-09-12T11:35:27;100070.66;;;28.41;100.00
43683;BME280;29285;52.128;21.060;2023-09-12T11:45:35;100069.67;;;28.81;100.00
43683;BME280;29285;52.128;21.060;2023-09-12T11:50:52;100067.91;;;29.03;100.00
43683;BME280;29285;52.128;21.060;2023-09-12T11:55:58;100067.49;;;29.29;100.00
43683;BME280;29285;52.128;21.060;2023-09-12T12:00:59;100064.43;;;29.26;100.00
43683;BME280;29285;52.128;21.060;2023-09-12T12:06:00;100060.83;;;29.24;100.00
43683;BME280;29285;52.128;21.060;2023-09-12T12:11:01;100055.79;;;29.30;100.00
43683;BME280;29285;52.128;21.060;2023-09-12T12:16:15;100057.81;;;29.55;100.00
43683;BME280;29285;52.128;21.060;2023-09-12T12:21:17;100057.05;;;29.84;100.00
43683;BME280;29285;52.128;21.060;2023-09-12T12:26:18;100057.30;;;29.85;100.00
43683;BME280;29285;52.128;21.060;2023-09-12T12:31:20;100052.89;;;29.93;100.00
43683;BME280;29285;52.128;21.060;2023-09-12T12:36:23;100045.46;;;30.13;100.00
43683;BME280;29285;52.128;21.060;2023-09-12T12:41:28;100044.24;;;30.36;100.00
43683;BME280;29285;52.128;21.060;2023-09-12T12:46:29;100044.21;;;30.65;100.00
43683;BME280;29285;52.128;21.060;2023-09-12T12:51:31;100036.20;;;30.68;100.00
43683;BME280;29285;52.128;21.060;2023-09-12T12:56:34;100037.11;;;30.77;100.00
43683;BME280;29285;52.128;21.060;2023-09-12T13:01:37;100035.42;;;30.93;100.00
43683;BME280;29285;52.128;21.060;2023-09-12T13:06:38;100034.59;;;31.06;100.00
43683;BME280;29285;52.128;21.060;2023-09-12T13:11:40;100033.45;;;31.16;100.00
43683;BME280;29285;52.128;21.060;2023-09-12T13:16:45;100030.95;;;31.21;100.00
43683;BME280;29285;52.128;21.060;2023-09-12T13:21:46;100030.82;;;30.94;100.00
43683;BME280;29285;52.128;21.060;2023-09-12T13:26:47;100031.48;;;30.35;100.00
43683;BME280;29285;52.128;21.060;2023-09-12T13:31:48;100030.52;;;29.95;100.00
43683;BME280;29285;52.128;21.060;2023-09-12T13:36:49;100026.56;;;30.01;100.00
43683;BME280;29285;52.128;21.060;2023-09-12T13:41:50;100022.72;;;30.08;100.00
43683;BME280;29285;52.128;21.060;2023-09-12T13:46:51;100024.21;;;29.90;100.00
43683;BME280;29285;52.128;21.060;2023-09-12T13:51:52;100027.96;;;29.62;100.00
43683;BME280;29285;52.128;21.060;2023-09-12T13:56:53;100027.33;;;29.47;100.00
43683;BME280;29285;52.128;21.060;2023-09-12T14:01:54;100027.35;;;29.41;100.00
43683;BME280;29285;52.128;21.060;2023-09-12T14:06:55;100027.02;;;29.84;100.00
43683;BME280;29285;52.128;21.060;2023-09-12T14:11:56;100028.28;;;30.29;100.00
43683;BME280;29285;52.128;21.060;2023-09-12T14:16:58;100015.33;;;30.64;100.00
43683;BME280;29285;52.128;21.060;2023-09-12T14:21:59;100016.16;;;30.97;100.00
43683;BME280;29285;52.128;21.060;2023-09-12T14:27:00;100019.32;;;30.96;100.00
43683;BME280;29285;52.128;21.060;2023-09-12T14:32:11;100023.95;;;31.05;100.00
43683;BME280;29285;52.128;21.060;2023-09-12T14:37:16;100029.18;;;30.98;100.00
43683;BME280;29285;52.128;21.060;2023-09-12T14:42:17;100031.20;;;30.87;100.00
43683;BME280;29285;52.128;21.060;2023-09-12T14:47:18;100032.59;;;30.70;100.00
43683;BME280;29285;52.128;21.060;2023-09-12T14:52:19;100035.31;;;30.55;100.00
43683;BME280;29285;52.128;21.060;2023-09-12T14:57:21;100035.98;;;30.24;100.00
43683;BME280;29285;52.128;21.060;2023-09-12T15:02:25;100040.35;;;30.00;100.00
43683;BME280;29285;52.128;21.060;2023-09-12T15:07:31;100036.23;;;30.46;100.00
43683;BME280;29285;52.128;21.060;2023-09-12T15:12:34;100037.46;;;31.41;100.00
43683;BME280;29285;52.128;21.060;2023-09-12T15:17:35;100034.44;;;32.14;100.00
43683;BME280;29285;52.128;21.060;2023-09-12T15:22:36;100040.05;;;32.64;100.00
43683;BME280;29285;52.128;21.060;2023-09-12T15:27:37;100036.34;;;32.56;100.00
43683;BME280;29285;52.128;21.060;2023-09-12T15:32:41;100036.56;;;31.95;100.00
43683;BME280;29285;52.128;21.060;2023-09-12T15:37:43;100039.60;;;31.38;100.00
43683;BME280;29285;52.128;21.060;2023-09-12T15:42:43;100033.77;;;30.88;100.00
43683;BME280;29285;52.128;21.060;2023-09-12T15:47:45;100032.52;;;30.42;100.00
43683;BME280;29285;52.128;21.060;2023-09-12T15:52:46;100032.13;;;29.99;100.00
43683;BME280;29285;52.128;21.060;2023-09-12T15:57:49;100033.95;;;29.61;100.00
43683;BME280;29285;52.128;21.060;2023-09-12T16:02:50;100034.33;;;29.27;100.00
43683;BME280;29285;52.128;21.060;2023-09-12T16:08:02;100032.19;;;28.94;100.00
43683;BME280;29285;52.128;21.060;2023-09-12T16:13:04;100035.86;;;28.63;100.00
43683;BME280;29285;52.128;21.060;2023-09-12T16:18:05;100036.70;;;28.32;100.00
43683;BME280;29285;52.128;21.060;2023-09-12T16:23:06;100036.40;;;28.05;100.00
43683;BME280;29285;52.128;21.060;2023-09-12T16:28:07;100039.95;;;27.82;100.00
43683;BME280;29285;52.128;21.060;2023-09-12T16:33:08;100036.95;;;27.58;100.00
43683;BME280;29285;52.128;21.060;2023-09-12T16:38:09;100031.81;;;27.34;99.92
43683;BME280;29285;52.128;21.060;2023-09-12T16:43:11;100037.25;;;27.16;99.88
43683;BME280;29285;52.128;21.060;2023-09-12T16:48:12;100039.42;;;26.99;99.92
43683;BME280;29285;52.128;21.060;2023-09-12T16:53:13;100043.09;;;26.80;99.75
43683;BME280;29285;52.128;21.060;2023-09-12T16:58:16;100039.21;;;26.57;99.57
43683;BME280;29285;52.128;21.060;2023-09-12T17:03:17;100043.90;;;26.36;99.40
43683;BME280;29285;52.128;21.060;2023-09-12T17:08:18;100046.60;;;26.12;99.17
43683;BME280;29285;52.128;21.060;2023-09-12T17:13:19;100046.11;;;25.87;98.91
43683;BME280;29285;52.128;21.060;2023-09-12T17:18:21;100044.86;;;25.66;98.81
43683;BME280;29285;52.128;21.060;2023-09-12T17:23:22;100048.52;;;25.49;98.92
43683;BME280;29285;52.128;21.060;2023-09-12T17:28:23;100051.91;;;25.34;98.97
43683;BME280;29285;52.128;21.060;2023-09-12T17:33:25;100052.70;;;25.16;98.83
43683;BME280;29285;52.128;21.060;2023-09-12T17:38:26;100047.77;;;24.99;98.83
43683;BME280;29285;52.128;21.060;2023-09-12T17:43:27;100052.21;;;24.86;99.00
43683;BME280;29285;52.128;21.060;2023-09-12T17:48:30;100057.93;;;24.74;98.95
43683;BME280;29285;52.128;21.060;2023-09-12T17:53:31;100068.14;;;24.64;98.97
43683;BME280;29285;52.128;21.060;2023-09-12T17:58:32;100065.73;;;24.58;99.33
43683;BME280;29285;52.128;21.060;2023-09-12T18:03:34;100063.63;;;24.54;99.56
43683;BME280;29285;52.128;21.060;2023-09-12T18:08:35;100066.58;;;24.45;99.47
43683;BME280;29285;52.128;21.060;2023-09-12T18:13:36;100070.42;;;24.35;99.46
43683;BME280;29285;52.128;21.060;2023-09-12T18:18:37;100065.16;;;24.27;99.65
43683;BME280;29285;52.128;21.060;2023-09-12T18:23:38;100065.84;;;24.23;99.70
43683;BME280;29285;52.128;21.060;2023-09-12T18:28:49;100070.61;;;24.16;99.94
43683;BME280;29285;52.128;21.060;2023-09-12T18:33:52;100072.02;;;24.11;99.93
43683;BME280;29285;52.128;21.060;2023-09-12T18:38:53;100070.70;;;24.03;99.95
43683;BME280;29285;52.128;21.060;2023-09-12T18:43:54;100071.77;;;23.98;99.98
43683;BME280;29285;52.128;21.060;2023-09-12T18:48:58;100074.42;;;23.89;100.00
43683;BME280;29285;52.128;21.060;2023-09-12T18:53:59;100074.77;;;23.75;99.93
43683;BME280;29285;52.128;21.060;2023-09-12T18:59:00;100069.13;;;23.63;99.97
43683;BME280;29285;52.128;21.060;2023-09-12T19:04:25;100069.89;;;23.55;100.00
43683;BME280;29285;52.128;21.060;2023-09-12T19:09:27;100067.98;;;23.45;99.99
43683;BME280;29285;52.128;21.060;2023-09-12T19:14:28;100068.58;;;23.36;100.00
43683;BME280;29285;52.128;21.060;2023-09-12T19:19:29;100064.66;;;23.29;100.00
43683;BME280;29285;52.128;21.060;2023-09-12T19:24:30;100062.64;;;23.23;100.00
43683;BME280;29285;52.128;21.060;2023-09-12T19:29:49;100062.33;;;23.17;100.00
43683;BME280;29285;52.128;21.060;2023-09-12T19:34:51;100058.77;;;23.10;100.00
43683;BME280;29285;52.128;21.060;2023-09-12T19:39:52;100057.38;;;23.05;100.00
43683;BME280;29285;52.128;21.060;2023-09-12T19:44:54;100062.17;;;23.02;100.00
43683;BME280;29285;52.128;21.060;2023-09-12T19:49:55;100060.76;;;22.98;100.00
43683;BME280;29285;52.128;21.060;2023-09-12T19:54:56;100061.80;;;22.88;100.00
43683;BME280;29285;52.128;21.060;2023-09-12T19:59:57;100067.65;;;22.78;100.00
43683;BME280;29285;52.128;21.060;2023-09-12T20:04:58;100065.83;;;22.71;100.00
43683;BME280;29285;52.128;21.060;2023-09-12T20:09:59;100064.42;;;22.69;100.00
43683;BME280;29285;52.128;21.060;2023-09-12T20:15:01;100063.04;;;22.65;100.00
43683;BME280;29285;52.128;21.060;2023-09-12T20:20:03;100067.58;;;22.64;100.00
43683;BME280;29285;52.128;21.060;2023-09-12T20:25:04;100068.35;;;22.60;100.00
43683;BME280;29285;52.128;21.060;2023-09-12T20:30:06;100068.89;;;22.57;100.00
43683;BME280;29285;52.128;21.060;2023-09-12T20:35:07;100069.30;;;22.54;100.00
43683;BME280;29285;52.128;21.060;2023-09-12T20:40:09;100068.25;;;22.49;100.00
43683;BME280;29285;52.128;21.060;2023-09-12T20:45:13;100068.39;;;22.42;100.00
43683;BME280;29285;52.128;21.060;2023-09-12T20:50:14;100067.52;;;22.29;100.00
43683;BME280;29285;52.128;21.060;2023-09-12T20:55:18;100073.21;;;22.23;100.00
43683;BME280;29285;52.128;21.060;2023-09-12T21:00:19;100071.73;;;22.24;100.00
43683;BME280;29285;52.128;21.060;2023-09-12T21:05:26;100072.45;;;22.19;100.00
43683;BME280;29285;52.128;21.060;2023-09-12T21:10:30;100073.77;;;22.12;100.00
43683;BME280;29285;52.128;21.060;2023-09-12T21:15:32;100076.56;;;22.04;100.00
43683;BME280;29285;52.128;21.060;2023-09-12T21:20:33;100075.83;;;22.00;100.00
43683;BME280;29285;52.128;21.060;2023-09-12T21:25:34;100074.96;;;21.97;100.00
43683;BME280;29285;52.128;21.060;2023-09-12T21:30:35;100070.45;;;21.93;100.00
43683;BME280;29285;52.128;21.060;2023-09-12T21:35:36;100069.31;;;21.89;100.00
43683;BME280;29285;52.128;21.060;2023-09-12T21:40:37;100064.77;;;21.83;100.00
43683;BME280;29285;52.128;21.060;2023-09-12T21:45:38;100068.23;;;21.79;100.00
43683;BME280;29285;52.128;21.060;2023-09-12T21:50:39;100071.55;;;21.74;100.00
43683;BME280;29285;52.128;21.060;2023-09-12T21:55:40;100072.20;;;21.69;100.00
43683;BME280;29285;52.128;21.060;2023-09-12T22:00:41;100067.80;;;21.61;100.00
43683;BME280;29285;52.128;21.060;2023-09-12T22:05:43;100068.59;;;21.51;100.00
43683;BME280;29285;52.128;21.060;2023-09-12T22:10:44;100067.61;;;21.47;100.00
43683;BME280;29285;52.128;21.060;2023-09-12T22:15:45;100068.66;;;21.45;100.00
43683;BME280;29285;52.128;21.060;2023-09-12T22:20:47;100063.27;;;21.41;100.00
43683;BME280;29285;52.128;21.060;2023-09-12T22:25:48;100068.52;;;21.36;100.00
43683;BME280;29285;52.128;21.060;2023-09-12T22:30:49;100069.58;;;21.31;100.00
43683;BME280;29285;52.128;21.060;2023-09-12T22:35:52;100076.90;;;21.24;100.00
43683;BME280;29285;52.128;21.060;2023-09-12T22:40:54;100078.34;;;21.18;100.00
43683;BME280;29285;52.128;21.060;2023-09-12T22:45:56;100077.52;;;21.11;100.00
43683;BME280;29285;52.128;21.060;2023-09-12T22:50:57;100082.81;;;21.09;100.00
43683;BME280;29285;52.128;21.060;2023-09-12T22:55:58;100083.92;;;20.99;100.00
43683;BME280;29285;52.128;21.060;2023-09-12T23:00:59;100086.48;;;20.90;100.00
43683;BME280;29285;52.128;21.060;2023-09-12T23:06:02;100083.44;;;20.90;100.00
43683;BME280;29285;52.128;21.060;2023-09-12T23:11:03;100083.17;;;20.92;100.00
43683;BME280;29285;52.128;21.060;2023-09-12T23:16:04;100087.17;;;20.84;100.00
43683;BME280;29285;52.128;21.060;2023-09-12T23:21:05;100086.09;;;20.67;100.00
43683;BME280;29285;52.128;21.060;2023-09-12T23:26:06;100082.77;;;20.61;100.00
43683;BME280;29285;52.128;21.060;2023-09-12T23:31:07;100078.48;;;20.65;100.00
43683;BME280;29285;52.128;21.060;2023-09-12T23:36:09;100070.75;;;20.67;100.00
43683;BME280;29285;52.128;21.060;2023-09-12T23:41:10;100069.09;;;20.71;100.00
43683;BME280;29285;52.128;21.060;2023-09-12T23:46:12;100069.23;;;20.69;100.00
43683;BME280;29285;52.128;21.060;2023-09-12T23:51:13;100064.04;;;20.64;100.00
43683;BME280;29285;52.128;21.060;2023-09-12T23:56:16;100064.73;;;20.59;100.00
